sensor_id;sensor_type;location;lat;lon;timestamp;temperature;humidity
29241;DHT22;16268;49.880;8.648;2023-04-01T00:00:46;10.80;99.90
29241;DHT22;16268;49.880;8.648;2023-04-01T00:03:12;10.80;99.90
29241;DHT22;16268;49.880;8.648;2023-04-01T00:05:37;10.90;99.90
29241;DHT22;16268;49.880;8.648;2023-04-01T00:08:03;10.80;99.90
29241;DHT22;16268;49.880;8.648;2023-04-01T00:10:29;10.80;99.90
29241;DHT22;16268;49.880;8.648;2023-04-01T00:12:54;10.90;99.90
29241;DHT22;16268;49.880;8.648;2023-04-01T00:15:20;10.90;99.90
29241;DHT22;16268;49.880;8.648;2023-04-01T00:17:46;10.90;99.90
29241;DHT22;16268;49.880;8.648;2023-04-01T00:20:12;10.90;99.90
29241;DHT22;16268;49.880;8.648;2023-04-01T00:22:40;10.90;99.90
29241;DHT22;16268;49.880;8.648;2023-04-01T00:25:06;10.90;99.90
29241;DHT22;16268;49.880;8.648;2023-04-01T00:27:33;10.90;99.90
29241;DHT22;16268;49.880;8.648;2023-04-01T00:29:58;10.80;99.90
29241;DHT22;16268;49.880;8.648;2023-04-01T00:32:24;10.90;99.90
29241;DHT22;16268;49.880;8.648;2023-04-01T00:34:52;10.90;99.90
29241;DHT22;16268;49.880;8.648;2023-04-01T00:37:18;10.90;99.90
29241;DHT22;16268;49.880;8.648;2023-04-01T00:39:44;10.90;99.90
29241;DHT22;16268;49.880;8.648;2023-04-01T00:42:10;10.90;99.90
29241;DHT22;16268;49.880;8.648;2023-04-01T00:44:39;10.90;99.90
29241;DHT22;16268;49.880;8.648;2023-04-01T00:47:05;10.90;99.90
29241;DHT22;16268;49.880;8.648;2023-04-01T00:49:43;10.80;99.90
29241;DHT22;16268;49.880;8.648;2023-04-01T00:52:12;10.90;99.90
29241;DHT22;16268;49.880;8.648;2023-04-01T00:54:41;10.90;99.90
29241;DHT22;16268;49.880;8.648;2023-04-01T00:57:31;10.80;99.90
29241;DHT22;16268;49.880;8.648;2023-04-01T00:59:57;10.90;99.90
29241;DHT22;16268;49.880;8.648;2023-04-01T01:02:25;10.90;99.90
29241;DHT22;16268;49.880;8.648;2023-04-01T01:04:51;10.90;99.90
29241;DHT22;16268;49.880;8.648;2023-04-01T01:10:19;10.90;99.90
29241;DHT22;16268;49.880;8.648;2023-04-01T01:13:09;10.90;99.90
29241;DHT22;16268;49.880;8.648;2023-04-01T01:27:01;10.90;99.90
29241;DHT22;16268;49.880;8.648;2023-04-01T01:35:26;10.90;99.90
29241;DHT22;16268;49.880;8.648;2023-04-01T01:37:56;10.90;99.90
29241;DHT22;16268;49.880;8.648;2023-04-01T01:40:25;10.90;99.90
29241;DHT22;16268;49.880;8.648;2023-04-01T01:42:55;11.00;99.90
29241;DHT22;16268;49.880;8.648;2023-04-01T01:45:23;11.00;99.90
29241;DHT22;16268;49.880;8.648;2023-04-01T01:47:51;10.90;99.90
29241;DHT22;16268;49.880;8.648;2023-04-01T01:50:18;11.00;99.90
29241;DHT22;16268;49.880;8.648;2023-04-01T01:52:44;11.00;99.90
29241;DHT22;16268;49.880;8.648;2023-04-01T01:55:33;11.00;99.90
29241;DHT22;16268;49.880;8.648;2023-04-01T01:58:18;11.00;99.90
29241;DHT22;16268;49.880;8.648;2023-04-01T02:01:06;11.00;99.90
29241;DHT22;16268;49.880;8.648;2023-04-01T02:03:35;11.00;99.90
29241;DHT22;16268;49.880;8.648;2023-04-01T02:06:04;11.00;99.90
29241;DHT22;16268;49.880;8.648;2023-04-01T02:08:36;10.90;99.90
29241;DHT22;16268;49.880;8.648;2023-04-01T02:11:08;10.90;99.90
29241;DHT22;16268;49.880;8.648;2023-04-01T02:13:45;11.00;99.90
29241;DHT22;16268;49.880;8.648;2023-04-01T02:16:23;11.00;99.90
29241;DHT22;16268;49.880;8.648;2023-04-01T02:18:52;10.90;99.90
29241;DHT22;16268;49.880;8.648;2023-04-01T02:21:22;10.90;99.90
29241;DHT22;16268;49.880;8.648;2023-04-01T02:23:51;10.90;99.90
29241;DHT22;16268;49.880;8.648;2023-04-01T02:26:18;10.90;99.90
29241;DHT22;16268;49.880;8.648;2023-04-01T02:28:46;11.00;99.90
29241;DHT22;16268;49.880;8.648;2023-04-01T02:31:14;10.90;99.90
29241;DHT22;16268;49.880;8.648;2023-04-01T02:33:41;10.90;99.90
29241;DHT22;16268;49.880;8.648;2023-04-01T02:36:13;10.90;99.90
29241;DHT22;16268;49.880;8.648;2023-04-01T02:38:41;10.90;99.90
29241;DHT22;16268;49.880;8.648;2023-04-01T02:41:07;10.90;99.90
29241;DHT22;16268;49.880;8.648;2023-04-01T02:43:33;10.90;99.90
29241;DHT22;16268;49.880;8.648;2023-04-01T02:45:58;10.80;99.90
29241;DHT22;16268;49.880;8.648;2023-04-01T02:48:24;10.70;99.90
29241;DHT22;16268;49.880;8.648;2023-04-01T02:50:50;10.70;99.90
29241;DHT22;16268;49.880;8.648;2023-04-01T02:53:16;10.70;99.90
29241;DHT22;16268;49.880;8.648;2023-04-01T02:55:42;10.70;99.90
29241;DHT22;16268;49.880;8.648;2023-04-01T02:58:08;10.70;99.90
29241;DHT22;16268;49.880;8.648;2023-04-01T03:00:34;10.70;99.90
29241;DHT22;16268;49.880;8.648;2023-04-01T03:02:59;10.60;99.90
29241;DHT22;16268;49.880;8.648;2023-04-01T03:05:25;10.70;99.90
29241;DHT22;16268;49.880;8.648;2023-04-01T03:07:51;10.70;99.90
29241;DHT22;16268;49.880;8.648;2023-04-01T03:10:17;10.70;99.90
29241;DHT22;16268;49.880;8.648;2023-04-01T03:12:42;10.70;99.90
29241;DHT22;16268;49.880;8.648;2023-04-01T03:15:11;10.60;99.90
29241;DHT22;16268;49.880;8.648;2023-04-01T03:17:38;10.60;99.90
29241;DHT22;16268;49.880;8.648;2023-04-01T03:20:04;10.60;99.90
29241;DHT22;16268;49.880;8.648;2023-04-01T03:22:30;10.60;99.90
29241;DHT22;16268;49.880;8.648;2023-04-01T03:24:56;10.60;99.90
29241;DHT22;16268;49.880;8.648;2023-04-01T03:27:22;10.60;99.90
29241;DHT22;16268;49.880;8.648;2023-04-01T03:29:48;10.60;99.90
29241;DHT22;16268;49.880;8.648;2023-04-01T03:32:14;10.60;99.90
29241;DHT22;16268;49.880;8.648;2023-04-01T03:34:40;10.60;99.90
29241;DHT22;16268;49.880;8.648;2023-04-01T03:37:06;10.60;99.90
29241;DHT22;16268;49.880;8.648;2023-04-01T03:39:32;10.60;99.90
29241;DHT22;16268;49.880;8.648;2023-04-01T03:41:57;10.60;99.90
29241;DHT22;16268;49.880;8.648;2023-04-01T03:44:23;10.60;99.90
29241;DHT22;16268;49.880;8.648;2023-04-01T03:46:48;10.50;99.90
29241;DHT22;16268;49.880;8.648;2023-04-01T03:49:14;10.50;99.90
29241;DHT22;16268;49.880;8.648;2023-04-01T03:51:41;10.50;99.90
29241;DHT22;16268;49.880;8.648;2023-04-01T03:54:08;10.50;99.90
29241;DHT22;16268;49.880;8.648;2023-04-01T03:56:34;10.50;99.90
29241;DHT22;16268;49.880;8.648;2023-04-01T03:59:05;10.50;99.90
29241;DHT22;16268;49.880;8.648;2023-04-01T04:01:31;10.50;99.90
29241;DHT22;16268;49.880;8.648;2023-04-01T04:03:57;10.50;99.90
29241;DHT22;16268;49.880;8.648;2023-04-01T04:06:23;10.50;99.90
29241;DHT22;16268;49.880;8.648;2023-04-01T04:08:49;10.50;99.90
29241;DHT22;16268;49.880;8.648;2023-04-01T04:11:15;10.50;99.90
29241;DHT22;16268;49.880;8.648;2023-04-01T04:13:42;10.50;99.90
29241;DHT22;16268;49.880;8.648;2023-04-01T04:16:08;10.50;99.90
29241;DHT22;16268;49.880;8.648;2023-04-01T04:18:35;10.50;99.90
29241;DHT22;16268;49.880;8.648;2023-04-01T04:21:00;10.50;99.90
29241;DHT22;16268;49.880;8.648;2023-04-01T04:23:26;10.60;99.90
29241;DHT22;16268;49.880;8.648;2023-04-01T04:25:55;10.60;99.90
29241;DHT22;16268;49.880;8.648;2023-04-01T04:28:20;10.60;99.90
29241;DHT22;16268;49.880;8.648;2023-04-01T04:30:46;10.60;99.90
29241;DHT22;16268;49.880;8.648;2023-04-01T04:33:12;10.60;99.90
29241;DHT22;16268;49.880;8.648;2023-04-01T04:35:37;10.60;99.90
29241;DHT22;16268;49.880;8.648;2023-04-01T04:38:03;10.60;99.90
29241;DHT22;16268;49.880;8.648;2023-04-01T04:40:28;10.70;99.90
29241;DHT22;16268;49.880;8.648;2023-04-01T04:42:54;10.60;99.90
29241;DHT22;16268;49.880;8.648;2023-04-01T04:45:20;10.60;99.90
29241;DHT22;16268;49.880;8.648;2023-04-01T04:47:45;10.60;99.90
29241;DHT22;16268;49.880;8.648;2023-04-01T04:50:11;10.70;99.90
29241;DHT22;16268;49.880;8.648;2023-04-01T04:52:37;10.70;99.90
29241;DHT22;16268;49.880;8.648;2023-04-01T04:55:03;10.70;99.90
29241;DHT22;16268;49.880;8.648;2023-04-01T04:57:28;10.70;99.90
29241;DHT22;16268;49.880;8.648;2023-04-01T04:59:54;10.70;99.90
29241;DHT22;16268;49.880;8.648;2023-04-01T05:02:20;10.70;99.90
29241;DHT22;16268;49.880;8.648;2023-04-01T05:04:45;10.80;99.90
29241;DHT22;16268;49.880;8.648;2023-04-01T05:07:11;10.80;99.90
29241;DHT22;16268;49.880;8.648;2023-04-01T05:09:37;10.70;99.90
29241;DHT22;16268;49.880;8.648;2023-04-01T05:12:03;10.80;99.90
29241;DHT22;16268;49.880;8.648;2023-04-01T05:14:28;10.70;99.90
29241;DHT22;16268;49.880;8.648;2023-04-01T05:16:54;10.80;99.90
29241;DHT22;16268;49.880;8.648;2023-04-01T05:19:20;10.80;99.90
29241;DHT22;16268;49.880;8.648;2023-04-01T05:21:46;10.80;99.90
29241;DHT22;16268;49.880;8.648;2023-04-01T05:24:11;10.80;99.90
29241;DHT22;16268;49.880;8.648;2023-04-01T05:26:37;10.80;99.90
29241;DHT22;16268;49.880;8.648;2023-04-01T05:29:04;10.80;99.90
29241;DHT22;16268;49.880;8.648;2023-04-01T05:31:30;10.80;99.90
29241;DHT22;16268;49.880;8.648;2023-04-01T05:33:55;10.80;99.90
29241;DHT22;16268;49.880;8.648;2023-04-01T05:36:22;10.80;99.90
29241;DHT22;16268;49.880;8.648;2023-04-01T05:38:47;10.80;99.90
29241;DHT22;16268;49.880;8.648;2023-04-01T05:41:14;10.80;99.90
29241;DHT22;16268;49.880;8.648;2023-04-01T05:43:41;10.80;99.90
29241;DHT22;16268;49.880;8.648;2023-04-01T05:46:07;10.70;99.90
29241;DHT22;16268;49.880;8.648;2023-04-01T05:48:34;10.70;99.90
29241;DHT22;16268;49.880;8.648;2023-04-01T05:51:04;10.70;99.90
29241;DHT22;16268;49.880;8.648;2023-04-01T05:53:30;10.70;99.90
29241;DHT22;16268;49.880;8.648;2023-04-01T05:55:56;10.80;99.90
29241;DHT22;16268;49.880;8.648;2023-04-01T05:58:22;10.70;99.90
29241;DHT22;16268;49.880;8.648;2023-04-01T06:00:47;10.70;99.90
29241;DHT22;16268;49.880;8.648;2023-04-01T06:03:13;10.80;99.90
29241;DHT22;16268;49.880;8.648;2023-04-01T06:05:43;10.80;99.90
29241;DHT22;16268;49.880;8.648;2023-04-01T06:08:17;10.90;99.90
29241;DHT22;16268;49.880;8.648;2023-04-01T06:13:42;10.90;99.90
29241;DHT22;16268;49.880;8.648;2023-04-01T06:16:36;10.90;99.90
29241;DHT22;16268;49.880;8.648;2023-04-01T06:27:04;10.90;99.90
29241;DHT22;16268;49.880;8.648;2023-04-01T06:29:42;10.80;99.90
29241;DHT22;16268;49.880;8.648;2023-04-01T06:32:42;10.90;99.90
29241;DHT22;16268;49.880;8.648;2023-04-01T06:35:35;10.90;99.90
29241;DHT22;16268;49.880;8.648;2023-04-01T06:38:18;10.90;99.90
29241;DHT22;16268;49.880;8.648;2023-04-01T06:41:09;10.90;99.90
29241;DHT22;16268;49.880;8.648;2023-04-01T06:44:01;11.00;99.90
29241;DHT22;16268;49.880;8.648;2023-04-01T06:54:44;11.00;99.90
29241;DHT22;16268;49.880;8.648;2023-04-01T06:57:43;11.00;99.90
29241;DHT22;16268;49.880;8.648;2023-04-01T07:00:39;10.90;99.90
29241;DHT22;16268;49.880;8.648;2023-04-01T07:06:03;10.90;99.90
29241;DHT22;16268;49.880;8.648;2023-04-01T07:08:33;10.90;99.90
29241;DHT22;16268;49.880;8.648;2023-04-01T07:11:03;10.90;99.90
29241;DHT22;16268;49.880;8.648;2023-04-01T07:14:19;10.90;99.90
29241;DHT22;16268;49.880;8.648;2023-04-01T07:16:25;10.90;99.90
29241;DHT22;16268;49.880;8.648;2023-04-01T07:19:02;11.00;99.90
29241;DHT22;16268;49.880;8.648;2023-04-01T07:21:36;10.90;99.90
29241;DHT22;16268;49.880;8.648;2023-04-01T07:24:37;10.90;99.90
29241;DHT22;16268;49.880;8.648;2023-04-01T07:27:01;11.00;99.90
29241;DHT22;16268;49.880;8.648;2023-04-01T07:29:27;11.00;99.90
29241;DHT22;16268;49.880;8.648;2023-04-01T07:38:18;11.20;99.90
29241;DHT22;16268;49.880;8.648;2023-04-01T07:40:38;11.30;99.90
29241;DHT22;16268;49.880;8.648;2023-04-01T07:46:02;11.50;99.90
29241;DHT22;16268;49.880;8.648;2023-04-01T07:48:43;11.50;99.90
29241;DHT22;16268;49.880;8.648;2023-04-01T07:56:17;11.60;99.90
29241;DHT22;16268;49.880;8.648;2023-04-01T08:02:22;11.60;99.90
29241;DHT22;16268;49.880;8.648;2023-04-01T08:04:55;11.70;99.90
29241;DHT22;16268;49.880;8.648;2023-04-01T08:07:35;11.80;99.90
29241;DHT22;16268;49.880;8.648;2023-04-01T08:10:54;11.80;99.90
29241;DHT22;16268;49.880;8.648;2023-04-01T08:15:42;11.80;99.90
29241;DHT22;16268;49.880;8.648;2023-04-01T08:21:05;11.60;99.90
29241;DHT22;16268;49.880;8.648;2023-04-01T08:23:47;11.80;99.90
29241;DHT22;16268;49.880;8.648;2023-04-01T08:29:11;11.90;99.90
29241;DHT22;16268;49.880;8.648;2023-04-01T08:32:00;11.90;99.90
29241;DHT22;16268;49.880;8.648;2023-04-01T08:34:39;11.80;99.90
29241;DHT22;16268;49.880;8.648;2023-04-01T08:37:21;11.60;99.90
29241;DHT22;16268;49.880;8.648;2023-04-01T08:39:54;11.50;99.90
29241;DHT22;16268;49.880;8.648;2023-04-01T08:50:19;11.60;99.90
29241;DHT22;16268;49.880;8.648;2023-04-01T08:55:56;11.60;99.90
29241;DHT22;16268;49.880;8.648;2023-04-01T08:58:57;11.50;99.90
29241;DHT22;16268;49.880;8.648;2023-04-01T09:18:56;11.80;99.90
29241;DHT22;16268;49.880;8.648;2023-04-01T09:21:31;11.80;99.90
29241;DHT22;16268;49.880;8.648;2023-04-01T09:24:18;11.80;99.90
29241;DHT22;16268;49.880;8.648;2023-04-01T09:29:54;11.70;99.90
29241;DHT22;16268;49.880;8.648;2023-04-01T09:32:42;11.70;99.90
29241;DHT22;16268;49.880;8.648;2023-04-01T09:38:17;11.70;99.90
29241;DHT22;16268;49.880;8.648;2023-04-01T09:54:39;12.00;99.90
29241;DHT22;16268;49.880;8.648;2023-04-01T10:22:37;11.90;99.90
29241;DHT22;16268;49.880;8.648;2023-04-01T10:36:47;12.40;99.90
29241;DHT22;16268;49.880;8.648;2023-04-01T10:42:17;12.40;99.90
29241;DHT22;16268;49.880;8.648;2023-04-01T10:48:01;12.40;99.90
29241;DHT22;16268;49.880;8.648;2023-04-01T11:02:05;12.50;99.90
29241;DHT22;16268;49.880;8.648;2023-04-01T11:22:21;12.80;99.90
29241;DHT22;16268;49.880;8.648;2023-04-01T11:24:59;12.90;99.90
29241;DHT22;16268;49.880;8.648;2023-04-01T11:32:54;12.80;99.90
29241;DHT22;16268;49.880;8.648;2023-04-01T11:35:33;13.00;99.90
29241;DHT22;16268;49.880;8.648;2023-04-01T11:38:42;12.90;99.90
29241;DHT22;16268;49.880;8.648;2023-04-01T11:41:43;12.80;99.90
29241;DHT22;16268;49.880;8.648;2023-04-01T11:44:29;12.90;99.90
29241;DHT22;16268;49.880;8.648;2023-04-01T11:58:22;12.70;99.90
29241;DHT22;16268;49.880;8.648;2023-04-01T12:01:16;12.70;99.90
29241;DHT22;16268;49.880;8.648;2023-04-01T12:04:03;12.70;99.90
29241;DHT22;16268;49.880;8.648;2023-04-01T12:09:33;12.40;99.90
29241;DHT22;16268;49.880;8.648;2023-04-01T12:12:24;12.40;99.90
29241;DHT22;16268;49.880;8.648;2023-04-01T12:14:57;12.50;99.90
29241;DHT22;16268;49.880;8.648;2023-04-01T12:17:48;12.60;99.90
29241;DHT22;16268;49.880;8.648;2023-04-01T12:26:15;12.80;99.90
29241;DHT22;16268;49.880;8.648;2023-04-01T12:32:19;12.80;99.90
29241;DHT22;16268;49.880;8.648;2023-04-01T12:35:02;12.70;99.90
29241;DHT22;16268;49.880;8.648;2023-04-01T12:37:54;12.70;99.90
29241;DHT22;16268;49.880;8.648;2023-04-01T12:43:15;12.90;99.90
29241;DHT22;16268;49.880;8.648;2023-04-01T12:51:11;13.30;99.90
29241;DHT22;16268;49.880;8.648;2023-04-01T12:54:07;13.40;99.90
29241;DHT22;16268;49.880;8.648;2023-04-01T12:56:55;13.50;99.90
29241;DHT22;16268;49.880;8.648;2023-04-01T12:59:44;13.50;99.90
29241;DHT22;16268;49.880;8.648;2023-04-01T13:07:22;13.50;99.90
29241;DHT22;16268;49.880;8.648;2023-04-01T13:12:57;13.20;99.90
29241;DHT22;16268;49.880;8.648;2023-04-01T13:18:19;13.10;99.90
29241;DHT22;16268;49.880;8.648;2023-04-01T13:26:27;12.90;99.90
29241;DHT22;16268;49.880;8.648;2023-04-01T13:29:14;13.00;99.90
29241;DHT22;16268;49.880;8.648;2023-04-01T13:45:12;13.10;99.90
29241;DHT22;16268;49.880;8.648;2023-04-01T13:47:59;13.00;99.90
29241;DHT22;16268;49.880;8.648;2023-04-01T13:54:12;13.00;99.90
29241;DHT22;16268;49.880;8.648;2023-04-01T13:57:07;13.20;99.90
29241;DHT22;16268;49.880;8.648;2023-04-01T14:00:17;13.30;99.90
29241;DHT22;16268;49.880;8.648;2023-04-01T14:05:56;13.40;99.90
29241;DHT22;16268;49.880;8.648;2023-04-01T14:11:39;13.50;99.90
29241;DHT22;16268;49.880;8.648;2023-04-01T14:17:55;13.80;99.90
29241;DHT22;16268;49.880;8.648;2023-04-01T14:20:20;13.90;99.90
29241;DHT22;16268;49.880;8.648;2023-04-01T14:31:53;13.80;99.90
29241;DHT22;16268;49.880;8.648;2023-04-01T14:42:41;13.90;99.90
29241;DHT22;16268;49.880;8.648;2023-04-01T14:48:34;13.90;99.90
29241;DHT22;16268;49.880;8.648;2023-04-01T14:56:43;13.40;99.90
29241;DHT22;16268;49.880;8.648;2023-04-01T14:59:29;13.30;99.90
29241;DHT22;16268;49.880;8.648;2023-04-01T15:02:09;13.20;99.90
29241;DHT22;16268;49.880;8.648;2023-04-01T15:52:43;12.80;99.90
29241;DHT22;16268;49.880;8.648;2023-04-01T15:55:27;12.80;99.90
29241;DHT22;16268;49.880;8.648;2023-04-01T16:01:12;12.80;99.90
29241;DHT22;16268;49.880;8.648;2023-04-01T16:06:42;12.70;99.90
29241;DHT22;16268;49.880;8.648;2023-04-01T16:09:36;12.70;99.90
29241;DHT22;16268;49.880;8.648;2023-04-01T16:18:18;12.70;99.90
29241;DHT22;16268;49.880;8.648;2023-04-01T16:31:51;12.60;99.90
29241;DHT22;16268;49.880;8.648;2023-04-01T16:37:21;12.50;99.90
29241;DHT22;16268;49.880;8.648;2023-04-01T16:42:47;12.40;99.90
29241;DHT22;16268;49.880;8.648;2023-04-01T16:45:30;12.40;99.90
29241;DHT22;16268;49.880;8.648;2023-04-01T16:48:17;12.40;99.90
29241;DHT22;16268;49.880;8.648;2023-04-01T16:51:21;12.40;99.90
29241;DHT22;16268;49.880;8.648;2023-04-01T16:53:52;12.50;99.90
29241;DHT22;16268;49.880;8.648;2023-04-01T16:56:22;12.40;99.90
29241;DHT22;16268;49.880;8.648;2023-04-01T16:59:04;12.40;99.90
29241;DHT22;16268;49.880;8.648;2023-04-01T17:01:51;12.40;99.90
29241;DHT22;16268;49.880;8.648;2023-04-01T17:04:45;12.40;99.90
29241;DHT22;16268;49.880;8.648;2023-04-01T17:07:35;12.30;99.90
29241;DHT22;16268;49.880;8.648;2023-04-01T17:14:02;12.30;99.90
29241;DHT22;16268;49.880;8.648;2023-04-01T17:19:17;12.30;99.90
29241;DHT22;16268;49.880;8.648;2023-04-01T17:22:01;12.30;99.90
29241;DHT22;16268;49.880;8.648;2023-04-01T17:32:40;12.20;99.90
29241;DHT22;16268;49.880;8.648;2023-04-01T17:35:17;12.20;99.90
29241;DHT22;16268;49.880;8.648;2023-04-01T17:38:19;12.10;99.90
29241;DHT22;16268;49.880;8.648;2023-04-01T17:43:49;12.10;99.90
29241;DHT22;16268;49.880;8.648;2023-04-01T17:46:29;12.10;99.90
29241;DHT22;16268;49.880;8.648;2023-04-01T17:49:33;12.10;99.90
29241;DHT22;16268;49.880;8.648;2023-04-01T17:55:15;12.20;99.90
29241;DHT22;16268;49.880;8.648;2023-04-01T18:06:17;12.10;99.90
29241;DHT22;16268;49.880;8.648;2023-04-01T18:27:38;11.90;99.90
29241;DHT22;16268;49.880;8.648;2023-04-01T18:30:30;11.90;99.90
29241;DHT22;16268;49.880;8.648;2023-04-01T18:33:09;11.80;99.90
29241;DHT22;16268;49.880;8.648;2023-04-01T18:35:51;11.80;99.90
29241;DHT22;16268;49.880;8.648;2023-04-01T18:38:37;11.80;99.90
29241;DHT22;16268;49.880;8.648;2023-04-01T18:41:22;11.70;99.90
29241;DHT22;16268;49.880;8.648;2023-04-01T18:46:54;11.80;99.90
29241;DHT22;16268;49.880;8.648;2023-04-01T18:49:30;11.70;99.90
29241;DHT22;16268;49.880;8.648;2023-04-01T18:52:48;11.80;99.90
29241;DHT22;16268;49.880;8.648;2023-04-01T18:57:38;11.60;99.90
29241;DHT22;16268;49.880;8.648;2023-04-01T19:00:49;11.60;99.90
29241;DHT22;16268;49.880;8.648;2023-04-01T19:03:05;11.60;99.90
29241;DHT22;16268;49.880;8.648;2023-04-01T19:05:40;11.60;99.90
29241;DHT22;16268;49.880;8.648;2023-04-01T19:08:28;11.50;99.90
29241;DHT22;16268;49.880;8.648;2023-04-01T19:11:08;11.50;99.90
29241;DHT22;16268;49.880;8.648;2023-04-01T19:13:44;11.50;99.90
29241;DHT22;16268;49.880;8.648;2023-04-01T19:18:56;11.40;99.90
29241;DHT22;16268;49.880;8.648;2023-04-01T19:27:14;11.40;99.90
29241;DHT22;16268;49.880;8.648;2023-04-01T19:29:58;11.40;99.90
29241;DHT22;16268;49.880;8.648;2023-04-01T19:35:46;11.40;99.90
29241;DHT22;16268;49.880;8.648;2023-04-01T19:41:22;11.30;99.90
29241;DHT22;16268;49.880;8.648;2023-04-01T19:44:18;11.30;99.90
29241;DHT22;16268;49.880;8.648;2023-04-01T19:47:06;11.20;99.90
29241;DHT22;16268;49.880;8.648;2023-04-01T19:49:46;11.20;99.90
29241;DHT22;16268;49.880;8.648;2023-04-01T19:52:18;11.20;99.90
29241;DHT22;16268;49.880;8.648;2023-04-01T19:58:05;11.20;99.90
29241;DHT22;16268;49.880;8.648;2023-04-01T20:00:37;11.10;99.90
29241;DHT22;16268;49.880;8.648;2023-04-01T20:05:49;11.10;99.90
29241;DHT22;16268;49.880;8.648;2023-04-01T20:08:26;11.00;99.90
29241;DHT22;16268;49.880;8.648;2023-04-01T20:11:06;11.00;99.90
29241;DHT22;16268;49.880;8.648;2023-04-01T20:14:01;11.00;99.90
29241;DHT22;16268;49.880;8.648;2023-04-01T20:21:59;11.00;99.90
29241;DHT22;16268;49.880;8.648;2023-04-01T20:24:34;11.00;99.90
29241;DHT22;16268;49.880;8.648;2023-04-01T20:27:14;11.00;99.90
29241;DHT22;16268;49.880;8.648;2023-04-01T20:40:45;11.00;99.90
29241;DHT22;16268;49.880;8.648;2023-04-01T20:43:42;11.00;99.90
29241;DHT22;16268;49.880;8.648;2023-04-01T20:51:32;11.00;99.90
29241;DHT22;16268;49.880;8.648;2023-04-01T20:54:26;11.00;99.90
29241;DHT22;16268;49.880;8.648;2023-04-01T21:11:08;11.00;99.90
29241;DHT22;16268;49.880;8.648;2023-04-01T21:13:51;11.00;99.90
29241;DHT22;16268;49.880;8.648;2023-04-01T21:22:17;11.10;99.90
29241;DHT22;16268;49.880;8.648;2023-04-01T21:24:48;11.10;99.90
29241;DHT22;16268;49.880;8.648;2023-04-01T21:33:16;11.00;99.90
29241;DHT22;16268;49.880;8.648;2023-04-01T21:39:03;11.10;99.90
29241;DHT22;16268;49.880;8.648;2023-04-01T21:42:00;11.10;99.90
29241;DHT22;16268;49.880;8.648;2023-04-01T21:44:48;11.10;99.90
29241;DHT22;16268;49.880;8.648;2023-04-01T21:56:16;10.90;99.90
29241;DHT22;16268;49.880;8.648;2023-04-01T22:05:07;10.80;99.90
29241;DHT22;16268;49.880;8.648;2023-04-01T22:10:32;10.80;99.90
29241;DHT22;16268;49.880;8.648;2023-04-01T22:23:55;10.90;99.90
29241;DHT22;16268;49.880;8.648;2023-04-01T22:29:10;10.90;99.90
29241;DHT22;16268;49.880;8.648;2023-04-01T22:32:23;10.90;99.90
29241;DHT22;16268;49.880;8.648;2023-04-01T22:37:20;10.90;99.90
29241;DHT22;16268;49.880;8.648;2023-04-01T22:40:09;10.90;99.90
29241;DHT22;16268;49.880;8.648;2023-04-01T22:42:46;10.90;99.90
29241;DHT22;16268;49.880;8.648;2023-04-01T22:51:17;10.90;99.90
29241;DHT22;16268;49.880;8.648;2023-04-01T22:56:41;10.90;99.90
29241;DHT22;16268;49.880;8.648;2023-04-01T22:59:51;10.90;99.90
29241;DHT22;16268;49.880;8.648;2023-04-01T23:02:28;10.90;99.90
29241;DHT22;16268;49.880;8.648;2023-04-01T23:05:02;10.90;99.90
29241;DHT22;16268;49.880;8.648;2023-04-01T23:10:44;10.90;99.90
29241;DHT22;16268;49.880;8.648;2023-04-01T23:13:22;10.80;99.90
29241;DHT22;16268;49.880;8.648;2023-04-01T23:15:52;10.70;99.90
29241;DHT22;16268;49.880;8.648;2023-04-01T23:23:42;10.70;99.90
29241;DHT22;16268;49.880;8.648;2023-04-01T23:26:39;10.60;99.90
29241;DHT22;16268;49.880;8.648;2023-04-01T23:29:13;10.60;99.90
29241;DHT22;16268;49.880;8.648;2023-04-01T23:31:41;10.60;99.90
29241;DHT22;16268;49.880;8.648;2023-04-01T23:36:44;10.50;99.90
29241;DHT22;16268;49.880;8.648;2023-04-01T23:42:00;10.40;99.90
29241;DHT22;16268;49.880;8.648;2023-04-01T23:44:27;10.40;99.90
29241;DHT22;16268;49.880;8.648;2023-04-01T23:46:54;10.40;99.90
29241;DHT22;16268;49.880;8.648;2023-04-01T23:49:28;10.30;99.90
29241;DHT22;16268;49.880;8.648;2023-04-01T23:52:03;10.30;99.90
29241;DHT22;16268;49.880;8.648;2023-04-01T23:54:47;10.20;99.90
29241;DHT22;16268;49.880;8.648;2023-04-01T23:57:18;10.20;99.90
